Time;durP1;ratioP1;P1;durP2;ratioP2;P2;SDS_P1;SDS_P2;PMS_P1;PMS_P2;Temp;Humidity;BMP_temperature;BMP_pressure;BME280_temperature;BME280_humidity;BME280_pressure;Samples;Min_cycle;Max_cycle;Signal;HPM_P1;HPM_P2
2022/06/12 15:42:32;;;;;;;8.60;1.73;;;;;;;15.69;94.70;98821.94;5124965;27;20128;-93
2022/06/12 15:45:19;;;;;;;7.32;1.50;;;;;;;15.98;92.93;98817.63;5118658;28;20035;-93
2022/06/12 15:47:50;;;;;;;8.93;1.67;;;;;;;15.25;95.58;98821.41;5109380;28;20027;-91
2022/06/12 15:50:16;;;;;;;9.20;1.70;;;;;;;15.10;97.65;98821.81;5102732;28;21448;-91
2022/06/12 15:52:42;;;;;;;9.30;1.95;;;;;;;14.87;100.00;98825.91;5104351;28;20027;-90
2022/06/12 15:55:08;;;;;;;8.88;1.63;;;;;;;14.38;100.00;98819.19;5114798;28;20095;-91
2022/06/12 15:57:33;;;;;;;7.93;1.60;;;;;;;14.16;100.00;98817.94;5108046;28;20032;-91
2022/06/12 15:59:59;;;;;;;9.60;1.60;;;;;;;14.39;100.00;98827.06;5101291;28;20054;-91
2022/06/12 16:02:26;;;;;;;10.95;1.80;;;;;;;14.27;100.00;98819.47;5099350;28;20268;-90
2022/06/12 16:04:53;;;;;;;9.30;1.63;;;;;;;14.44;100.00;98832.19;5101870;28;20085;-90
2022/06/12 16:07:21;;;;;;;8.93;2.05;;;;;;;14.83;100.00;98819.88;5098806;28;20023;-91
2022/06/12 16:09:48;;;;;;;8.57;1.70;;;;;;;15.55;100.00;98808.34;5093341;28;20379;-93
2022/06/12 16:12:21;;;;;;;13.07;2.13;;;;;;;15.53;100.00;98805.75;5091538;28;20044;-91
2022/06/12 16:14:47;;;;;;;9.52;2.20;;;;;;;15.89;100.00;98806.53;5096348;28;20039;-90
2022/06/12 16:17:20;;;;;;;10.18;2.00;;;;;;;14.55;100.00;98816.19;5097697;28;20032;-94
2022/06/12 16:19:46;;;;;;;13.38;2.47;;;;;;;14.41;100.00;98817.38;5101545;28;20027;-93
2022/06/12 16:22:12;;;;;;;9.75;2.30;;;;;;;15.08;100.00;98816.63;5101605;28;20119;-94
2022/06/12 16:24:37;;;;;;;10.57;2.15;;;;;;;14.67;100.00;98815.94;5103609;28;20098;-94
2022/06/12 16:27:03;;;;;;;11.00;2.30;;;;;;;14.61;100.00;98821.28;5100532;28;20028;-93
2022/06/12 16:29:29;;;;;;;11.82;2.58;;;;;;;14.32;100.00;98814.97;5099539;28;20393;-94
2022/06/12 16:31:55;;;;;;;9.95;2.13;;;;;;;14.26;100.00;98810.72;5099683;28;20031;-93
2022/06/12 16:34:21;;;;;;;11.80;2.35;;;;;;;14.48;100.00;98808.47;5101517;28;20044;-92
2022/06/12 16:36:47;;;;;;;12.07;2.60;;;;;;;14.27;100.00;98824.72;5102043;28;20115;-90
2022/06/12 16:39:13;;;;;;;11.98;2.50;;;;;;;13.80;100.00;98814.38;5103123;28;20035;-95
2022/06/12 16:41:46;;;;;;;11.75;2.33;;;;;;;13.86;100.00;98808.13;5106528;28;20040;-94
2022/06/12 16:44:19;;;;;;;8.52;2.20;;;;;;;13.60;100.00;98818.28;5111289;28;20032;-93
2022/06/12 16:46:57;;;;;;;14.75;2.47;;;;;;;13.43;100.00;98805.53;5121879;28;20115;-92
2022/06/12 16:49:25;;;;;;;11.27;2.28;;;;;;;13.63;100.00;98809.50;5110648;28;20035;-94
2022/06/12 16:52:12;;;;;;;8.52;2.03;;;;;;;13.81;100.00;98798.59;5095166;28;20020;-94
2022/06/12 16:54:51;;;;;;;8.52;2.15;;;;;;;13.75;100.00;98813.59;5086425;28;20024;-94
2022/06/12 16:57:22;;;;;;;8.52;1.65;;;;;;;13.53;100.00;98816.69;5085183;28;20563;-94
2022/06/12 16:59:49;;;;;;;8.95;1.67;;;;;;;14.59;100.00;98810.81;5084561;28;20027;-94
2022/06/12 17:02:17;;;;;;;7.20;1.25;;;;;;;14.30;100.00;98809.75;5090131;28;20032;-94
2022/06/12 17:04:46;;;;;;;8.98;1.73;;;;;;;13.98;100.00;98806.09;5091324;28;20032;-93
2022/06/12 17:07:16;;;;;;;7.63;1.50;;;;;;;13.79;100.00;98807.41;5094633;28;20116;-94
2022/06/12 17:09:42;;;;;;;7.28;1.60;;;;;;;13.61;100.00;98803.41;5091679;28;20052;-94
2022/06/12 17:12:10;;;;;;;11.15;1.70;;;;;;;14.29;100.00;98802.81;5093120;28;20039;-95
2022/06/12 17:14:37;;;;;;;5.82;1.30;;;;;;;14.57;100.00;98807.38;5084497;28;20023;-93
2022/06/12 17:17:04;;;;;;;5.55;1.35;;;;;;;14.54;100.00;98799.56;5089536;28;20464;-93
2022/06/12 17:22:21;;;;;;;8.43;1.63;;;;;;;13.72;100.00;98809.28;5095337;28;20112;-94
2022/06/12 17:24:47;;;;;;;6.53;1.25;;;;;;;13.62;100.00;98806.00;5088664;28;20023;-92
2022/06/12 17:27:14;;;;;;;8.48;1.70;;;;;;;13.76;100.00;98810.09;5094338;28;20089;-94
2022/06/12 17:29:40;;;;;;;7.47;1.60;;;;;;;13.80;100.00;98809.13;5085775;28;20131;-95
2022/06/12 17:32:09;;;;;;;10.55;1.75;;;;;;;13.49;100.00;98805.38;5089447;28;20030;-95
2022/06/12 17:34:35;;;;;;;7.28;1.30;;;;;;;13.48;100.00;98805.41;5083389;28;20035;-93
2022/06/12 17:37:02;;;;;;;7.10;1.35;;;;;;;13.44;100.00;98806.38;5089825;28;20075;-94
2022/06/12 17:39:28;;;;;;;9.50;1.70;;;;;;;13.51;100.00;98805.34;5089398;28;20117;-95
2022/06/12 17:41:53;;;;;;;8.27;1.95;;;;;;;13.26;100.00;98807.56;5088407;28;20041;-95
2022/06/12 17:44:21;;;;;;;12.27;1.70;;;;;;;13.15;100.00;98811.25;5092061;28;20032;-94
2022/06/12 17:46:49;;;;;;;7.63;1.42;;;;;;;13.05;100.00;98816.69;5086337;28;20488;-95
2022/06/12 17:49:16;;;;;;;7.35;1.67;;;;;;;13.01;100.00;98815.00;5087480;28;20031;-94
2022/06/12 17:51:43;;;;;;;8.93;1.80;;;;;;;13.00;100.00;98811.53;5092891;28;20506;-95
2022/06/12 17:54:12;;;;;;;7.18;1.52;;;;;;;12.98;100.00;98802.84;5090656;28;20043;-94
2022/06/12 17:56:40;;;;;;;7.55;1.60;;;;;;;12.89;100.00;98813.50;5094346;28;20035;-95
2022/06/12 17:59:06;;;;;;;11.82;1.70;;;;;;;12.83;100.00;98824.91;5092170;28;20023;-94
2022/06/12 18:01:31;;;;;;;9.88;1.92;;;;;;;12.85;100.00;98819.66;5105139;28;20036;-95
2022/06/12 18:03:57;;;;;;;9.02;1.75;;;;;;;12.81;100.00;98821.47;5103268;28;20086;-94
2022/06/12 18:06:25;;;;;;;10.40;2.00;;;;;;;12.87;100.00;98820.50;5110759;28;20017;-93
2022/06/12 18:08:52;;;;;;;8.68;1.70;;;;;;;12.74;100.00;98822.47;5099255;28;20111;-93
2022/06/12 18:11:21;;;;;;;11.88;1.83;;;;;;;12.82;100.00;98817.97;5102623;28;20058;-94
2022/06/12 18:13:51;;;;;;;8.27;1.52;;;;;;;12.76;100.00;98821.56;5102798;28;20043;-95
2022/06/12 18:19:38;;;;;;;7.93;1.73;;;;;;;12.53;100.00;98821.06;5109422;28;20082;-95
2022/06/12 18:22:04;;;;;;;10.45;1.60;;;;;;;12.55;100.00;98816.66;5108446;28;20028;-95
2022/06/12 18:25:17;;;;;;;9.15;1.75;;;;;;;12.33;100.00;98829.22;5107431;28;20048;-94
2022/06/12 18:27:42;;;;;;;7.30;1.42;;;;;;;12.44;100.00;98828.16;5087371;28;20024;-96
2022/06/12 18:30:10;;;;;;;8.52;1.92;;;;;;;12.42;100.00;98836.91;5093077;28;20444;-94
2022/06/12 18:32:39;;;;;;;9.55;1.83;;;;;;;12.40;100.00;98818.66;5086105;28;20027;-95
2022/06/12 18:35:08;;;;;;;8.73;1.63;;;;;;;12.25;100.00;98824.09;5083844;28;20025;-96
2022/06/12 18:37:35;;;;;;;10.38;1.92;;;;;;;12.25;100.00;98827.56;5086587;28;20488;-95
2022/06/12 18:40:08;;;;;;;8.23;1.92;;;;;;;12.30;100.00;98814.41;5093770;28;20036;-95
2022/06/12 18:42:35;;;;;;;10.70;1.80;;;;;;;12.34;100.00;98815.25;5083737;28;20093;-94
2022/06/12 18:45:02;;;;;;;10.75;1.88;;;;;;;12.38;100.00;98811.69;5089634;28;20036;-94
2022/06/12 18:47:40;;;;;;;9.80;2.08;;;;;;;12.21;100.00;98817.19;5085159;28;20464;-95
2022/06/12 18:50:06;;;;;;;8.32;1.85;;;;;;;12.35;100.00;98807.38;5084412;28;20091;-94
2022/06/12 18:52:31;;;;;;;10.68;1.80;;;;;;;12.31;100.00;98812.69;5080725;28;20516;-94
2022/06/12 18:54:57;;;;;;;7.28;1.75;;;;;;;12.27;100.00;98817.09;5087557;28;20173;-92
2022/06/12 18:57:22;;;;;;;12.43;1.70;;;;;;;12.28;100.00;98822.28;5087919;28;20063;-95
2022/06/12 18:59:48;;;;;;;6.93;1.70;;;;;;;12.34;100.00;98823.09;5090331;28;20030;-95
2022/06/12 19:02:14;;;;;;;9.00;1.60;;;;;;;12.33;100.00;98818.75;5088075;28;20080;-94
2022/06/12 19:04:40;;;;;;;11.60;1.65;;;;;;;12.32;100.00;98815.28;5085403;28;20123;-94
2022/06/12 19:07:06;;;;;;;7.40;1.50;;;;;;;12.15;100.00;98812.91;5088431;28;20031;-95
2022/06/12 19:09:33;;;;;;;7.65;1.30;;;;;;;12.11;100.00;98809.47;5085754;28;20036;-93
2022/06/12 19:11:58;;;;;;;8.52;1.48;;;;;;;12.06;100.00;98816.50;5083239;28;20024;-95
2022/06/12 19:14:26;;;;;;;9.55;1.75;;;;;;;12.00;100.00;98815.75;5083221;28;20109;-93
2022/06/12 19:16:54;;;;;;;9.68;1.52;;;;;;;11.99;100.00;98821.88;5088791;28;20028;-94
2022/06/12 19:19:26;;;;;;;8.73;2.08;;;;;;;11.87;100.00;98817.63;5086277;28;20032;-94
2022/06/12 19:21:52;;;;;;;8.93;1.50;;;;;;;11.91;100.00;98817.56;5084082;28;20130;-94
2022/06/12 19:24:19;;;;;;;7.45;1.40;;;;;;;11.86;100.00;98816.75;5084979;28;20097;-95
2022/06/12 19:26:46;;;;;;;8.60;1.65;;;;;;;11.86;100.00;98810.69;5084507;28;20062;-94
2022/06/12 19:29:14;;;;;;;7.57;1.40;;;;;;;11.83;100.00;98834.22;5080963;28;20044;-94
2022/06/12 19:31:39;;;;;;;9.10;1.90;;;;;;;11.68;100.00;98828.31;5088175;28;20045;-94
2022/06/12 19:34:05;;;;;;;6.68;1.40;;;;;;;11.62;100.00;98820.53;5084446;28;20036;-95
2022/06/12 19:36:35;;;;;;;7.70;1.52;;;;;;;11.68;100.00;98824.84;5085627;28;20114;-95
2022/06/12 19:39:03;;;;;;;10.90;1.45;;;;;;;11.55;100.00;98825.00;5086016;28;20427;-94
2022/06/12 19:41:30;;;;;;;8.13;1.13;;;;;;;11.51;100.00;98823.31;5080262;28;20051;-95
2022/06/12 19:43:56;;;;;;;6.30;1.25;;;;;;;11.43;100.00;98835.59;5083502;28;20835;-93
2022/06/12 19:46:22;;;;;;;6.18;0.98;;;;;;;11.38;100.00;98829.53;5084058;28;20044;-94
2022/06/12 19:48:48;;;;;;;5.47;1.00;;;;;;;11.34;100.00;98838.28;5087175;28;20488;-95
2022/06/12 19:51:13;;;;;;;5.03;1.00;;;;;;;11.30;100.00;98837.47;5083708;28;20101;-94
2022/06/12 19:53:39;;;;;;;6.30;1.10;;;;;;;11.24;100.00;98834.91;5088017;28;20035;-94
2022/06/12 19:56:05;;;;;;;5.80;1.23;;;;;;;11.32;100.00;98845.28;5083331;28;20105;-93
2022/06/12 19:58:32;;;;;;;9.10;1.15;;;;;;;11.31;100.00;98841.78;5077728;28;20240;-93
2022/06/12 20:01:03;;;;;;;6.28;1.08;;;;;;;11.24;100.00;98856.66;5083696;28;20584;-93
2022/06/12 20:03:29;;;;;;;6.25;1.08;;;;;;;11.24;100.00;98850.56;5084916;28;20035;-93
2022/06/12 20:08:40;;;;;;;6.20;1.15;;;;;;;11.22;100.00;98854.97;5089781;28;20050;-93
2022/06/12 20:11:08;;;;;;;7.13;1.30;;;;;;;11.15;100.00;98859.38;5087086;28;20115;-93
2022/06/12 20:13:35;;;;;;;6.03;0.93;;;;;;;11.14;100.00;98847.19;5090001;28;20484;-94
2022/06/12 20:16:01;;;;;;;4.40;0.98;;;;;;;11.08;100.00;98852.47;5088498;28;20051;-95
2022/06/12 20:18:35;;;;;;;6.55;0.90;;;;;;;11.14;100.00;98859.38;5089879;28;20028;-95
2022/06/12 20:21:08;;;;;;;3.92;0.98;;;;;;;11.17;100.00;98864.56;5107084;28;20020;-93
2022/06/12 20:23:52;;;;;;;8.82;1.65;;;;;;;11.19;100.00;98865.41;5104461;28;20051;-93
2022/06/12 20:26:17;;;;;;;5.97;1.20;;;;;;;11.13;100.00;98862.88;5095305;28;20036;-93
2022/06/12 20:28:43;;;;;;;6.32;1.10;;;;;;;11.13;100.00;98868.09;5094910;28;20111;-92
2022/06/12 20:31:12;;;;;;;7.82;1.48;;;;;;;11.09;100.00;98864.63;5105730;28;20004;-95
2022/06/12 20:33:38;;;;;;;5.75;0.90;;;;;;;11.07;100.00;98876.84;5108131;28;20054;-94
2022/06/12 20:36:04;;;;;;;7.18;1.27;;;;;;;11.00;100.00;98862.97;5102428;28;20039;-93
2022/06/12 20:38:30;;;;;;;8.18;1.50;;;;;;;11.07;100.00;98872.47;5098024;28;20087;-94
2022/06/12 20:40:57;;;;;;;5.90;0.98;;;;;;;11.01;100.00;98869.06;5091481;28;20067;-94
2022/06/12 20:43:25;;;;;;;8.80;1.30;;;;;;;10.95;100.00;98869.13;5093371;28;20047;-94
2022/06/12 20:45:51;;;;;;;6.03;1.23;;;;;;;10.95;100.00;98876.94;5092007;28;20234;-94
2022/06/12 20:48:17;;;;;;;11.00;1.63;;;;;;;10.91;100.00;98874.38;5092709;28;20027;-94
2022/06/12 20:50:44;;;;;;;6.18;1.20;;;;;;;10.85;100.00;98884.84;5094910;28;20030;-94
2022/06/12 20:53:12;;;;;;;8.52;1.40;;;;;;;10.82;100.00;98884.03;5090154;28;20032;-95
2022/06/12 20:55:41;;;;;;;8.15;1.33;;;;;;;10.77;100.00;98884.03;5091867;28;20024;-95
2022/06/12 20:58:07;;;;;;;9.30;1.50;;;;;;;10.73;100.00;98890.16;5089669;28;20077;-95
2022/06/12 21:00:32;;;;;;;7.32;1.40;;;;;;;10.71;100.00;98884.94;5089805;28;20024;-93
2022/06/12 21:02:58;;;;;;;8.80;1.42;;;;;;;10.72;100.00;98885.84;5086684;28;20103;-93
2022/06/12 21:05:26;;;;;;;7.72;1.42;;;;;;;10.73;100.00;98885.81;5096517;28;20032;-92
2022/06/12 21:07:53;;;;;;;6.68;1.10;;;;;;;10.72;100.00;98894.50;5095941;28;20032;-94
2022/06/12 21:10:30;;;;;;;8.27;1.55;;;;;;;10.70;100.00;98891.06;5105227;28;20032;-94
2022/06/12 21:16:51;;;;;;;6.43;1.35;;;;;;;10.66;100.00;98898.91;5090748;28;20051;-96
2022/06/12 21:22:12;;;;;;;11.32;1.88;;;;;;;10.59;100.00;98888.53;5088333;28;20044;-95
2022/06/12 21:24:38;;;;;;;7.43;1.52;;;;;;;10.50;100.00;98892.94;5099163;28;20036;-96
2022/06/12 21:27:31;;;;;;;5.30;1.30;;;;;;;10.46;100.00;98906.88;5103788;28;20107;-96
2022/06/12 21:30:07;;;;;;;7.27;1.60;;;;;;;10.37;100.00;98900.84;5094359;28;20048;-96
2022/06/12 21:32:41;;;;;;;9.80;1.60;;;;;;;10.33;100.00;98906.91;5099675;28;20028;-96
2022/06/12 21:35:10;;;;;;;8.30;1.50;;;;;;;10.31;100.00;98908.66;5104628;28;20568;-96
2022/06/12 21:37:39;;;;;;;8.43;1.48;;;;;;;10.29;100.00;98912.16;5106353;28;20016;-96
2022/06/12 21:40:13;;;;;;;8.30;1.60;;;;;;;10.22;100.00;98904.34;5108229;22;20039;-92
2022/06/12 21:42:40;;;;;;;6.50;1.10;;;;;;;10.12;100.00;98907.00;5024097;28;20188;-93
2022/06/12 21:45:09;;;;;;;7.43;1.15;;;;;;;10.05;100.00;98900.97;5028841;28;20037;-93
2022/06/12 21:47:34;;;;;;;9.88;1.13;;;;;;;10.00;100.00;98907.94;5030483;28;20017;-93
2022/06/12 21:50:00;;;;;;;5.93;1.00;;;;;;;9.96;100.00;98907.09;5021042;28;20109;-92
2022/06/12 21:55:10;;;;;;;7.15;1.02;;;;;;;9.83;100.00;98918.44;5027937;28;20521;-92
2022/06/12 21:57:35;;;;;;;4.65;1.00;;;;;;;9.80;100.00;98910.63;5024570;28;20060;-93
2022/06/12 22:00:02;;;;;;;5.53;1.17;;;;;;;9.74;100.00;98911.50;5029022;28;20060;-93
2022/06/12 22:02:28;;;;;;;5.15;0.90;;;;;;;9.71;100.00;98907.19;5028256;28;20033;-94
2022/06/12 22:04:53;;;;;;;5.25;0.93;;;;;;;9.65;100.00;98915.00;5031544;28;20040;-92
2022/06/12 22:07:19;;;;;;;6.60;1.20;;;;;;;9.59;100.00;98903.75;5041272;28;20026;-92
2022/06/12 22:09:45;;;;;;;5.85;1.00;;;;;;;9.57;100.00;98906.34;5052221;28;20025;-92
2022/06/12 22:12:13;;;;;;;3.90;0.90;;;;;;;9.53;100.00;98907.22;5027674;28;20724;-93
2022/06/12 22:14:38;;;;;;;5.00;0.90;;;;;;;9.51;100.00;98909.84;5028585;28;20048;-93
2022/06/12 22:17:06;;;;;;;6.55;1.00;;;;;;;9.49;100.00;98910.72;5030147;28;20038;-93
2022/06/12 22:19:37;;;;;;;7.88;0.98;;;;;;;9.49;100.00;98914.19;5045397;28;20093;-93
2022/06/12 22:22:04;;;;;;;8.48;1.17;;;;;;;9.45;100.00;98915.06;5049059;28;20033;-93
2022/06/12 22:24:30;;;;;;;6.05;1.17;;;;;;;9.46;100.00;98913.31;5032533;28;20018;-93
2022/06/12 22:26:56;;;;;;;6.97;1.08;;;;;;;9.47;100.00;98915.06;5030414;28;20044;-93
2022/06/12 22:29:22;;;;;;;7.15;1.10;;;;;;;9.46;100.00;98910.72;5027936;28;20065;-91
2022/06/12 22:31:48;;;;;;;5.00;1.00;;;;;;;9.52;100.00;98908.97;5031748;28;20065;-91
2022/06/12 22:34:13;;;;;;;5.00;1.13;;;;;;;9.63;100.00;98914.16;5028692;28;20037;-93
2022/06/12 22:36:42;;;;;;;4.97;1.20;;;;;;;9.68;100.00;98915.00;5027661;28;20033;-92
2022/06/12 22:39:09;;;;;;;6.32;1.05;;;;;;;9.69;100.00;98910.66;5021039;28;20040;-92
2022/06/12 22:41:35;;;;;;;7.13;1.17;;;;;;;9.73;100.00;98915.00;5030153;28;20053;-93
2022/06/12 22:44:00;;;;;;;6.28;1.30;;;;;;;9.70;100.00;98910.66;5023812;28;20033;-92
2022/06/12 22:46:27;;;;;;;7.30;1.48;;;;;;;9.72;100.00;98919.31;5024466;28;20116;-92
2022/06/12 22:48:56;;;;;;;4.35;1.10;;;;;;;9.76;100.00;98935.81;5026187;28;20041;-92
2022/06/12 22:55:45;;;;;;;7.22;1.20;;;;;;;9.89;100.00;98931.44;5145868;27;20403;-92
2022/06/12 22:58:11;;;;;;;10.70;1.75;;;;;;;9.89;100.00;98931.44;5133958;28;20027;-93
2022/06/12 23:00:39;;;;;;;7.03;1.40;;;;;;;9.87;100.00;98936.66;5131707;27;20081;-94
2022/06/12 23:03:08;;;;;;;5.60;1.17;;;;;;;9.83;100.00;98940.13;5127360;27;20057;-94
2022/06/12 23:05:34;;;;;;;4.82;1.20;;;;;;;9.76;100.00;98941.03;5125968;28;20039;-93
2022/06/12 23:07:59;;;;;;;8.23;1.27;;;;;;;9.71;100.00;98942.78;5128071;28;20023;-93
2022/06/12 23:10:35;;;;;;;;;;;;;;;;;;;;;
2022/06/12 23:13:04;;;;;;;7.72;1.58;;;;;;;9.65;100.00;98930.63;5123421;28;20032;-94
2022/06/12 23:15:35;;;;;;;9.07;1.30;;;;;;;9.58;100.00;98934.13;5123282;28;20046;-93
2022/06/12 23:18:01;;;;;;;7.25;1.35;;;;;;;9.53;100.00;98935.88;5124583;28;20023;-94
2022/06/12 23:20:27;;;;;;;6.03;1.50;;;;;;;9.50;100.00;98931.53;5128027;28;20132;-94
2022/06/12 23:25:37;;;;;;;7.22;1.73;;;;;;;9.52;100.00;98937.63;5122581;28;20065;-94
2022/06/12 23:28:03;;;;;;;6.43;1.48;;;;;;;9.53;100.00;98941.97;5125243;28;20582;-94
2022/06/12 23:30:55;;;;;;;8.60;1.58;;;;;;;9.49;100.00;98944.56;5122320;28;20480;-95
2022/06/12 23:33:24;;;;;;;7.28;1.33;;;;;;;9.43;100.00;98953.25;5067382;28;20074;-93
2022/06/12 23:35:52;;;;;;;7.85;1.50;;;;;;;9.43;100.00;98945.44;5091158;28;20130;-93
2022/06/12 23:38:19;;;;;;;7.15;1.15;;;;;;;9.40;100.00;98953.25;5072738;28;20044;-94
2022/06/12 23:40:48;;;;;;;6.65;1.45;;;;;;;9.37;100.00;98948.91;5068503;28;20028;-93
2022/06/12 23:43:21;;;;;;;8.15;1.45;;;;;;;9.40;100.00;98948.91;5066027;28;20035;-94
2022/06/12 23:45:50;;;;;;;5.88;1.50;;;;;;;9.35;100.00;98941.97;5078315;28;20562;-93
2022/06/12 23:48:17;;;;;;;7.35;1.60;;;;;;;9.29;100.00;98952.41;5067085;28;21500;-93
2022/06/12 23:50:55;;;;;;;7.18;1.48;;;;;;;9.20;100.00;98961.94;5065538;28;20256;-94
2022/06/12 23:53:20;;;;;;;9.15;1.60;;;;;;;9.16;100.00;98960.22;5082001;28;20036;-94
2022/06/12 23:55:46;;;;;;;5.57;1.30;;;;;;;9.14;100.00;98955.88;5081253;28;20039;-93
2022/06/12 23:58:23;;;;;;;5.85;1.67;;;;;;;9.15;100.00;98958.47;5065218;28;20768;-94
